sensor_id;sensor_type;location;lat;lon;timestamp;temperature;humidity
67093;SHT31;54011;50.772;7.730;2023-04-09T00:00:34;11.75;68.42
67093;SHT31;54011;50.772;7.730;2023-04-09T00:03:00;12.06;67.35
67093;SHT31;54011;50.772;7.730;2023-04-09T00:05:26;12.20;66.71
67093;SHT31;54011;50.772;7.730;2023-04-09T00:07:51;12.08;67.10
67093;SHT31;54011;50.772;7.730;2023-04-09T00:10:17;12.06;67.36
67093;SHT31;54011;50.772;7.730;2023-04-09T00:12:43;12.00;67.25
67093;SHT31;54011;50.772;7.730;2023-04-09T00:15:10;12.30;66.51
67093;SHT31;54011;50.772;7.730;2023-04-09T00:17:35;12.10;66.83
67093;SHT31;54011;50.772;7.730;2023-04-09T00:20:02;12.04;66.70
67093;SHT31;54011;50.772;7.730;2023-04-09T00:22:28;12.31;66.48
67093;SHT31;54011;50.772;7.730;2023-04-09T00:24:54;12.35;66.13
67093;SHT31;54011;50.772;7.730;2023-04-09T00:27:19;12.34;66.81
67093;SHT31;54011;50.772;7.730;2023-04-09T00:29:45;12.38;66.60
67093;SHT31;54011;50.772;7.730;2023-04-09T00:32:12;12.14;66.72
67093;SHT31;54011;50.772;7.730;2023-04-09T00:34:37;12.07;66.99
67093;SHT31;54011;50.772;7.730;2023-04-09T00:37:03;12.04;66.72
67093;SHT31;54011;50.772;7.730;2023-04-09T00:39:29;12.01;66.74
67093;SHT31;54011;50.772;7.730;2023-04-09T00:41:56;11.91;67.16
67093;SHT31;54011;50.772;7.730;2023-04-09T00:44:22;12.00;66.57
67093;SHT31;54011;50.772;7.730;2023-04-09T00:46:48;12.10;65.86
67093;SHT31;54011;50.772;7.730;2023-04-09T00:49:13;12.14;66.06
67093;SHT31;54011;50.772;7.730;2023-04-09T00:51:39;12.26;66.19
67093;SHT31;54011;50.772;7.730;2023-04-09T00:54:06;12.18;66.41
67093;SHT31;54011;50.772;7.730;2023-04-09T00:56:34;12.04;66.01
67093;SHT31;54011;50.772;7.730;2023-04-09T00:59:01;12.24;65.96
67093;SHT31;54011;50.772;7.730;2023-04-09T01:01:26;12.26;66.43
67093;SHT31;54011;50.772;7.730;2023-04-09T01:03:52;12.06;66.08
67093;SHT31;54011;50.772;7.730;2023-04-09T01:06:27;11.79;66.11
67093;SHT31;54011;50.772;7.730;2023-04-09T01:11:53;11.58;66.43
67093;SHT31;54011;50.772;7.730;2023-04-09T01:14:28;11.89;65.64
67093;SHT31;54011;50.772;7.730;2023-04-09T01:17:05;12.07;65.14
67093;SHT31;54011;50.772;7.730;2023-04-09T01:19:47;12.20;64.64
67093;SHT31;54011;50.772;7.730;2023-04-09T01:22:28;11.82;65.30
67093;SHT31;54011;50.772;7.730;2023-04-09T01:28:20;11.75;66.19
67093;SHT31;54011;50.772;7.730;2023-04-09T01:30:49;11.91;66.29
67093;SHT31;54011;50.772;7.730;2023-04-09T01:33:18;11.59;66.16
67093;SHT31;54011;50.772;7.730;2023-04-09T01:35:46;11.70;66.52
67093;SHT31;54011;50.772;7.730;2023-04-09T01:38:13;11.86;66.61
67093;SHT31;54011;50.772;7.730;2023-04-09T01:40:41;11.59;66.73
67093;SHT31;54011;50.772;7.730;2023-04-09T01:43:07;11.52;66.22
67093;SHT31;54011;50.772;7.730;2023-04-09T01:45:33;11.32;67.09
67093;SHT31;54011;50.772;7.730;2023-04-09T01:47:59;11.11;67.00
67093;SHT31;54011;50.772;7.730;2023-04-09T01:50:26;11.19;66.72
67093;SHT31;54011;50.772;7.730;2023-04-09T01:52:53;11.03;66.47
67093;SHT31;54011;50.772;7.730;2023-04-09T01:55:19;10.68;67.43
67093;SHT31;54011;50.772;7.730;2023-04-09T01:57:45;10.80;66.84
67093;SHT31;54011;50.772;7.730;2023-04-09T02:00:12;10.67;67.20
67093;SHT31;54011;50.772;7.730;2023-04-09T02:05:20;10.61;67.05
67093;SHT31;54011;50.772;7.730;2023-04-09T02:07:55;10.32;67.77
67093;SHT31;54011;50.772;7.730;2023-04-09T02:10:25;10.42;67.65
67093;SHT31;54011;50.772;7.730;2023-04-09T02:12:51;10.46;67.49
67093;SHT31;54011;50.772;7.730;2023-04-09T02:15:18;10.36;67.57
67093;SHT31;54011;50.772;7.730;2023-04-09T02:17:44;10.39;68.08
67093;SHT31;54011;50.772;7.730;2023-04-09T02:20:10;10.13;68.28
67093;SHT31;54011;50.772;7.730;2023-04-09T02:22:37;10.18;67.97
67093;SHT31;54011;50.772;7.730;2023-04-09T02:25:04;10.13;68.94
67093;SHT31;54011;50.772;7.730;2023-04-09T02:27:29;9.81;69.79
67093;SHT31;54011;50.772;7.730;2023-04-09T02:29:55;9.85;70.17
67093;SHT31;54011;50.772;7.730;2023-04-09T02:32:20;9.94;69.37
67093;SHT31;54011;50.772;7.730;2023-04-09T02:34:45;10.15;68.75
67093;SHT31;54011;50.772;7.730;2023-04-09T02:37:11;9.98;69.00
67093;SHT31;54011;50.772;7.730;2023-04-09T02:39:36;9.89;68.78
67093;SHT31;54011;50.772;7.730;2023-04-09T02:42:02;9.91;69.07
67093;SHT31;54011;50.772;7.730;2023-04-09T02:44:32;9.92;69.05
67093;SHT31;54011;50.772;7.730;2023-04-09T02:46:57;9.82;69.13
67093;SHT31;54011;50.772;7.730;2023-04-09T02:49:23;9.78;69.43
67093;SHT31;54011;50.772;7.730;2023-04-09T02:51:49;9.94;68.75
67093;SHT31;54011;50.772;7.730;2023-04-09T02:54:14;9.99;68.43
67093;SHT31;54011;50.772;7.730;2023-04-09T02:56:40;9.73;69.08
67093;SHT31;54011;50.772;7.730;2023-04-09T02:59:06;9.55;70.02
67093;SHT31;54011;50.772;7.730;2023-04-09T03:01:31;9.64;69.43
67093;SHT31;54011;50.772;7.730;2023-04-09T03:03:59;9.41;69.85
67093;SHT31;54011;50.772;7.730;2023-04-09T03:06:24;9.48;69.54
67093;SHT31;54011;50.772;7.730;2023-04-09T03:08:50;9.55;69.44
67093;SHT31;54011;50.772;7.730;2023-04-09T03:11:16;9.64;69.30
67093;SHT31;54011;50.772;7.730;2023-04-09T03:13:42;9.79;68.60
67093;SHT31;54011;50.772;7.730;2023-04-09T03:16:08;9.50;69.19
67093;SHT31;54011;50.772;7.730;2023-04-09T03:18:35;9.52;69.21
67093;SHT31;54011;50.772;7.730;2023-04-09T03:21:05;9.61;69.23
67093;SHT31;54011;50.772;7.730;2023-04-09T03:23:31;9.78;68.74
67093;SHT31;54011;50.772;7.730;2023-04-09T03:26:04;9.79;68.32
67093;SHT31;54011;50.772;7.730;2023-04-09T03:28:34;9.52;69.09
67093;SHT31;54011;50.772;7.730;2023-04-09T03:31:01;9.36;69.72
67093;SHT31;54011;50.772;7.730;2023-04-09T03:33:27;9.19;70.78
67093;SHT31;54011;50.772;7.730;2023-04-09T03:35:55;9.19;70.46
67093;SHT31;54011;50.772;7.730;2023-04-09T03:38:39;9.12;70.93
67093;SHT31;54011;50.772;7.730;2023-04-09T03:41:10;9.40;69.93
67093;SHT31;54011;50.772;7.730;2023-04-09T03:43:37;9.20;70.22
67093;SHT31;54011;50.772;7.730;2023-04-09T03:46:21;9.16;70.47
67093;SHT31;54011;50.772;7.730;2023-04-09T03:48:47;8.96;71.11
67093;SHT31;54011;50.772;7.730;2023-04-09T03:51:13;9.07;70.96
67093;SHT31;54011;50.772;7.730;2023-04-09T03:53:46;9.10;71.04
67093;SHT31;54011;50.772;7.730;2023-04-09T03:56:11;9.10;70.94
67093;SHT31;54011;50.772;7.730;2023-04-09T03:58:37;9.09;70.92
67093;SHT31;54011;50.772;7.730;2023-04-09T04:01:04;9.22;70.59
67093;SHT31;54011;50.772;7.730;2023-04-09T04:03:38;9.26;70.12
67093;SHT31;54011;50.772;7.730;2023-04-09T04:06:20;8.93;71.04
67093;SHT31;54011;50.772;7.730;2023-04-09T04:08:54;8.71;71.92
67093;SHT31;54011;50.772;7.730;2023-04-09T04:11:25;8.93;71.48
67093;SHT31;54011;50.772;7.730;2023-04-09T04:13:53;9.10;70.68
67093;SHT31;54011;50.772;7.730;2023-04-09T04:16:22;9.03;70.74
67093;SHT31;54011;50.772;7.730;2023-04-09T04:18:49;8.95;70.80
67093;SHT31;54011;50.772;7.730;2023-04-09T04:21:16;8.93;70.60
67093;SHT31;54011;50.772;7.730;2023-04-09T04:23:46;8.92;71.00
67093;SHT31;54011;50.772;7.730;2023-04-09T04:26:17;8.80;70.80
67093;SHT31;54011;50.772;7.730;2023-04-09T04:28:44;9.00;70.10
67093;SHT31;54011;50.772;7.730;2023-04-09T04:31:14;8.88;70.48
67093;SHT31;54011;50.772;7.730;2023-04-09T04:33:41;8.88;70.75
67093;SHT31;54011;50.772;7.730;2023-04-09T04:36:13;8.90;70.59
67093;SHT31;54011;50.772;7.730;2023-04-09T04:38:41;8.83;70.58
67093;SHT31;54011;50.772;7.730;2023-04-09T04:41:14;8.83;70.87
67093;SHT31;54011;50.772;7.730;2023-04-09T04:43:46;8.75;70.63
67093;SHT31;54011;50.772;7.730;2023-04-09T04:46:17;8.51;72.08
67093;SHT31;54011;50.772;7.730;2023-04-09T04:48:45;8.49;71.96
67093;SHT31;54011;50.772;7.730;2023-04-09T04:51:11;8.62;71.59
67093;SHT31;54011;50.772;7.730;2023-04-09T04:53:41;8.59;71.55
67093;SHT31;54011;50.772;7.730;2023-04-09T04:56:14;8.65;71.20
67093;SHT31;54011;50.772;7.730;2023-04-09T04:58:48;8.82;70.95
67093;SHT31;54011;50.772;7.730;2023-04-09T05:01:16;8.82;70.87
67093;SHT31;54011;50.772;7.730;2023-04-09T05:03:42;8.93;70.15
67093;SHT31;54011;50.772;7.730;2023-04-09T05:06:22;8.93;70.50
67093;SHT31;54011;50.772;7.730;2023-04-09T05:08:49;8.79;71.17
67093;SHT31;54011;50.772;7.730;2023-04-09T05:11:15;8.71;70.99
67093;SHT31;54011;50.772;7.730;2023-04-09T05:13:42;8.99;70.94
67093;SHT31;54011;50.772;7.730;2023-04-09T05:16:18;9.19;70.30
67093;SHT31;54011;50.772;7.730;2023-04-09T05:18:47;9.23;70.18
67093;SHT31;54011;50.772;7.730;2023-04-09T05:21:12;9.15;70.36
67093;SHT31;54011;50.772;7.730;2023-04-09T05:23:40;9.26;69.93
67093;SHT31;54011;50.772;7.730;2023-04-09T05:26:07;9.46;69.55
67093;SHT31;54011;50.772;7.730;2023-04-09T05:28:43;9.52;69.62
67093;SHT31;54011;50.772;7.730;2023-04-09T05:31:15;9.43;69.90
67093;SHT31;54011;50.772;7.730;2023-04-09T05:33:49;9.55;69.92
67093;SHT31;54011;50.772;7.730;2023-04-09T05:36:20;9.38;70.43
67093;SHT31;54011;50.772;7.730;2023-04-09T05:38:46;9.34;70.38
67093;SHT31;54011;50.772;7.730;2023-04-09T05:41:12;9.36;70.28
67093;SHT31;54011;50.772;7.730;2023-04-09T05:43:47;9.64;70.16
67093;SHT31;54011;50.772;7.730;2023-04-09T05:46:13;9.95;69.53
67093;SHT31;54011;50.772;7.730;2023-04-09T05:48:39;10.06;68.69
67093;SHT31;54011;50.772;7.730;2023-04-09T05:51:05;10.13;68.46
67093;SHT31;54011;50.772;7.730;2023-04-09T05:53:32;10.09;68.64
67093;SHT31;54011;50.772;7.730;2023-04-09T05:55:58;9.92;68.97
67093;SHT31;54011;50.772;7.730;2023-04-09T05:58:28;9.84;68.58
67093;SHT31;54011;50.772;7.730;2023-04-09T06:00:54;9.68;69.32
67093;SHT31;54011;50.772;7.730;2023-04-09T06:03:20;9.68;69.45
67093;SHT31;54011;50.772;7.730;2023-04-09T06:05:47;9.70;69.47
67093;SHT31;54011;50.772;7.730;2023-04-09T06:08:12;9.82;69.65
67093;SHT31;54011;50.772;7.730;2023-04-09T06:10:38;9.70;69.59
67093;SHT31;54011;50.772;7.730;2023-04-09T06:13:03;10.09;68.60
67093;SHT31;54011;50.772;7.730;2023-04-09T06:15:30;10.28;68.66
67093;SHT31;54011;50.772;7.730;2023-04-09T06:17:55;10.45;68.87
67093;SHT31;54011;50.772;7.730;2023-04-09T06:20:21;10.71;67.19
67093;SHT31;54011;50.772;7.730;2023-04-09T06:22:46;10.93;67.26
67093;SHT31;54011;50.772;7.730;2023-04-09T06:25:12;10.67;67.50
67093;SHT31;54011;50.772;7.730;2023-04-09T06:27:38;10.22;67.84
67093;SHT31;54011;50.772;7.730;2023-04-09T06:30:03;10.12;68.52
67093;SHT31;54011;50.772;7.730;2023-04-09T06:32:29;10.28;69.31
67093;SHT31;54011;50.772;7.730;2023-04-09T06:34:54;10.12;69.38
67093;SHT31;54011;50.772;7.730;2023-04-09T06:37:20;10.40;68.89
67093;SHT31;54011;50.772;7.730;2023-04-09T06:39:47;10.25;69.57
67093;SHT31;54011;50.772;7.730;2023-04-09T06:42:12;10.81;67.69
67093;SHT31;54011;50.772;7.730;2023-04-09T06:44:48;10.94;67.96
67093;SHT31;54011;50.772;7.730;2023-04-09T06:47:14;11.15;67.30
67093;SHT31;54011;50.772;7.730;2023-04-09T06:49:40;11.10;66.98
67093;SHT31;54011;50.772;7.730;2023-04-09T06:52:06;11.11;67.02
67093;SHT31;54011;50.772;7.730;2023-04-09T06:54:32;10.93;66.73
67093;SHT31;54011;50.772;7.730;2023-04-09T06:56:57;11.08;67.23
67093;SHT31;54011;50.772;7.730;2023-04-09T06:59:22;11.07;66.94
67093;SHT31;54011;50.772;7.730;2023-04-09T07:01:48;11.05;67.23
67093;SHT31;54011;50.772;7.730;2023-04-09T07:04:13;10.76;68.10
67093;SHT31;54011;50.772;7.730;2023-04-09T07:06:39;11.27;67.15
67093;SHT31;54011;50.772;7.730;2023-04-09T07:09:05;10.80;67.90
67093;SHT31;54011;50.772;7.730;2023-04-09T07:11:31;11.22;67.05
67093;SHT31;54011;50.772;7.730;2023-04-09T07:13:57;11.42;67.04
67093;SHT31;54011;50.772;7.730;2023-04-09T07:16:23;11.12;68.36
67093;SHT31;54011;50.772;7.730;2023-04-09T07:18:48;11.79;66.81
67093;SHT31;54011;50.772;7.730;2023-04-09T07:21:15;12.17;65.00
67093;SHT31;54011;50.772;7.730;2023-04-09T07:23:41;12.75;64.48
67093;SHT31;54011;50.772;7.730;2023-04-09T07:26:07;13.05;63.14
67093;SHT31;54011;50.772;7.730;2023-04-09T07:28:32;13.07;62.38
67093;SHT31;54011;50.772;7.730;2023-04-09T07:31:00;12.91;63.20
67093;SHT31;54011;50.772;7.730;2023-04-09T07:33:28;13.46;62.05
67093;SHT31;54011;50.772;7.730;2023-04-09T07:35:54;13.28;62.74
67093;SHT31;54011;50.772;7.730;2023-04-09T07:38:20;13.53;62.53
67093;SHT31;54011;50.772;7.730;2023-04-09T07:40:45;13.64;62.16
67093;SHT31;54011;50.772;7.730;2023-04-09T07:43:11;13.74;62.01
67093;SHT31;54011;50.772;7.730;2023-04-09T07:45:36;13.81;61.85
67093;SHT31;54011;50.772;7.730;2023-04-09T07:48:02;13.84;62.52
67093;SHT31;54011;50.772;7.730;2023-04-09T07:50:28;14.15;61.82
67093;SHT31;54011;50.772;7.730;2023-04-09T07:52:54;14.12;61.27
67093;SHT31;54011;50.772;7.730;2023-04-09T07:55:19;13.79;62.46
67093;SHT31;54011;50.772;7.730;2023-04-09T07:57:45;14.33;60.70
67093;SHT31;54011;50.772;7.730;2023-04-09T08:00:11;14.50;59.92
67093;SHT31;54011;50.772;7.730;2023-04-09T08:02:41;14.40;60.30
67093;SHT31;54011;50.772;7.730;2023-04-09T08:05:07;14.29;60.51
67093;SHT31;54011;50.772;7.730;2023-04-09T08:07:33;15.12;59.65
67093;SHT31;54011;50.772;7.730;2023-04-09T08:09:59;15.12;58.32
67093;SHT31;54011;50.772;7.730;2023-04-09T08:12:25;15.00;58.49
67093;SHT31;54011;50.772;7.730;2023-04-09T08:14:51;14.88;58.37
67093;SHT31;54011;50.772;7.730;2023-04-09T08:17:17;15.35;57.88
67093;SHT31;54011;50.772;7.730;2023-04-09T08:19:42;16.06;56.30
67093;SHT31;54011;50.772;7.730;2023-04-09T08:22:08;16.61;54.66
67093;SHT31;54011;50.772;7.730;2023-04-09T08:24:33;15.83;55.94
67093;SHT31;54011;50.772;7.730;2023-04-09T08:26:59;15.87;55.65
67093;SHT31;54011;50.772;7.730;2023-04-09T08:29:26;16.24;53.76
67093;SHT31;54011;50.772;7.730;2023-04-09T08:31:51;16.20;55.22
67093;SHT31;54011;50.772;7.730;2023-04-09T08:34:17;16.98;52.63
67093;SHT31;54011;50.772;7.730;2023-04-09T08:36:45;17.51;52.49
67093;SHT31;54011;50.772;7.730;2023-04-09T08:39:11;17.62;52.43
67093;SHT31;54011;50.772;7.730;2023-04-09T08:41:41;17.54;52.01
67093;SHT31;54011;50.772;7.730;2023-04-09T08:44:08;17.22;52.74
67093;SHT31;54011;50.772;7.730;2023-04-09T08:46:35;18.52;51.18
67093;SHT31;54011;50.772;7.730;2023-04-09T08:49:01;18.53;47.42
67093;SHT31;54011;50.772;7.730;2023-04-09T08:51:26;18.09;45.53
67093;SHT31;54011;50.772;7.730;2023-04-09T08:53:57;18.00;48.45
67093;SHT31;54011;50.772;7.730;2023-04-09T08:56:23;18.34;46.56
67093;SHT31;54011;50.772;7.730;2023-04-09T08:58:49;18.97;45.72
67093;SHT31;54011;50.772;7.730;2023-04-09T09:01:24;18.53;44.22
67093;SHT31;54011;50.772;7.730;2023-04-09T09:04:07;18.67;44.03
67093;SHT31;54011;50.772;7.730;2023-04-09T09:06:37;18.66;46.50
67093;SHT31;54011;50.772;7.730;2023-04-09T09:09:10;19.17;43.67
67093;SHT31;54011;50.772;7.730;2023-04-09T09:11:46;18.48;43.29
67093;SHT31;54011;50.772;7.730;2023-04-09T09:14:18;18.82;43.01
67093;SHT31;54011;50.772;7.730;2023-04-09T09:21:54;19.23;41.88
67093;SHT31;54011;50.772;7.730;2023-04-09T09:24:22;19.18;41.13
67093;SHT31;54011;50.772;7.730;2023-04-09T09:26:47;19.27;42.27
67093;SHT31;54011;50.772;7.730;2023-04-09T09:29:13;18.79;43.50
67093;SHT31;54011;50.772;7.730;2023-04-09T09:31:47;18.21;43.83
67093;SHT31;54011;50.772;7.730;2023-04-09T09:34:17;18.67;43.50
67093;SHT31;54011;50.772;7.730;2023-04-09T09:36:43;18.86;41.18
67093;SHT31;54011;50.772;7.730;2023-04-09T09:39:09;19.23;38.78
67093;SHT31;54011;50.772;7.730;2023-04-09T09:41:36;19.96;39.13
67093;SHT31;54011;50.772;7.730;2023-04-09T09:44:02;18.66;41.18
67093;SHT31;54011;50.772;7.730;2023-04-09T09:46:36;19.47;40.52
67093;SHT31;54011;50.772;7.730;2023-04-09T09:49:03;19.27;39.14
67093;SHT31;54011;50.772;7.730;2023-04-09T09:51:30;18.69;39.96
67093;SHT31;54011;50.772;7.730;2023-04-09T09:53:57;18.42;40.93
67093;SHT31;54011;50.772;7.730;2023-04-09T09:56:30;18.01;38.71
67093;SHT31;54011;50.772;7.730;2023-04-09T10:01:36;20.30;36.87
67093;SHT31;54011;50.772;7.730;2023-04-09T10:04:04;21.08;37.75
67093;SHT31;54011;50.772;7.730;2023-04-09T10:06:32;21.74;35.90
67093;SHT31;54011;50.772;7.730;2023-04-09T10:09:03;20.20;37.21
67093;SHT31;54011;50.772;7.730;2023-04-09T10:11:30;20.48;36.07
67093;SHT31;54011;50.772;7.730;2023-04-09T10:13:57;19.45;37.73
67093;SHT31;54011;50.772;7.730;2023-04-09T10:16:24;20.09;37.39
67093;SHT31;54011;50.772;7.730;2023-04-09T10:18:50;21.01;35.89
67093;SHT31;54011;50.772;7.730;2023-04-09T10:22:12;19.57;38.42
67093;SHT31;54011;50.772;7.730;2023-04-09T10:24:19;19.24;38.80
67093;SHT31;54011;50.772;7.730;2023-04-09T10:26:45;19.89;38.80
67093;SHT31;54011;50.772;7.730;2023-04-09T10:29:13;19.41;39.05
67093;SHT31;54011;50.772;7.730;2023-04-09T10:31:53;19.39;39.60
67093;SHT31;54011;50.772;7.730;2023-04-09T10:34:23;19.13;40.13
67093;SHT31;54011;50.772;7.730;2023-04-09T10:37:00;19.11;40.19
67093;SHT31;54011;50.772;7.730;2023-04-09T10:39:26;20.02;37.33
67093;SHT31;54011;50.772;7.730;2023-04-09T10:41:53;20.13;38.22
67093;SHT31;54011;50.772;7.730;2023-04-09T10:44:26;18.80;38.44
67093;SHT31;54011;50.772;7.730;2023-04-09T10:46:53;18.22;39.99
67093;SHT31;54011;50.772;7.730;2023-04-09T10:49:20;19.50;39.12
67093;SHT31;54011;50.772;7.730;2023-04-09T10:52:08;20.91;37.53
67093;SHT31;54011;50.772;7.730;2023-04-09T10:54:37;20.57;36.95
67093;SHT31;54011;50.772;7.730;2023-04-09T10:59:35;19.31;39.46
67093;SHT31;54011;50.772;7.730;2023-04-09T11:02:02;19.36;38.20
67093;SHT31;54011;50.772;7.730;2023-04-09T11:07:23;19.64;39.29
67093;SHT31;54011;50.772;7.730;2023-04-09T11:09:49;19.74;39.40
67093;SHT31;54011;50.772;7.730;2023-04-09T11:12:15;19.43;38.47
67093;SHT31;54011;50.772;7.730;2023-04-09T11:14:40;18.70;39.19
67093;SHT31;54011;50.772;7.730;2023-04-09T11:17:07;19.38;38.26
67093;SHT31;54011;50.772;7.730;2023-04-09T11:19:33;19.04;40.26
67093;SHT31;54011;50.772;7.730;2023-04-09T11:21:58;19.14;38.98
67093;SHT31;54011;50.772;7.730;2023-04-09T11:24:24;19.35;38.81
67093;SHT31;54011;50.772;7.730;2023-04-09T11:26:49;19.78;38.15
67093;SHT31;54011;50.772;7.730;2023-04-09T11:29:15;19.21;38.88
67093;SHT31;54011;50.772;7.730;2023-04-09T11:31:43;19.54;37.52
67093;SHT31;54011;50.772;7.730;2023-04-09T11:34:09;19.65;38.22
67093;SHT31;54011;50.772;7.730;2023-04-09T11:36:39;20.32;38.43
67093;SHT31;54011;50.772;7.730;2023-04-09T11:39:05;20.23;38.19
67093;SHT31;54011;50.772;7.730;2023-04-09T11:41:35;20.84;37.74
67093;SHT31;54011;50.772;7.730;2023-04-09T11:44:02;21.31;35.86
67093;SHT31;54011;50.772;7.730;2023-04-09T11:46:30;19.79;38.30
67093;SHT31;54011;50.772;7.730;2023-04-09T11:48:56;19.93;37.40
67093;SHT31;54011;50.772;7.730;2023-04-09T11:51:22;19.97;39.50
67093;SHT31;54011;50.772;7.730;2023-04-09T11:53:48;20.10;37.46
67093;SHT31;54011;50.772;7.730;2023-04-09T11:56:14;20.99;39.67
67093;SHT31;54011;50.772;7.730;2023-04-09T11:58:44;20.55;38.74
67093;SHT31;54011;50.772;7.730;2023-04-09T12:01:11;19.64;40.05
67093;SHT31;54011;50.772;7.730;2023-04-09T12:03:36;20.05;39.97
67093;SHT31;54011;50.772;7.730;2023-04-09T12:06:03;19.43;40.12
67093;SHT31;54011;50.772;7.730;2023-04-09T12:08:29;19.23;40.89
67093;SHT31;54011;50.772;7.730;2023-04-09T12:10:55;19.90;40.41
67093;SHT31;54011;50.772;7.730;2023-04-09T12:13:21;20.43;39.52
67093;SHT31;54011;50.772;7.730;2023-04-09T12:15:56;20.51;38.76
67093;SHT31;54011;50.772;7.730;2023-04-09T12:18:22;20.57;38.61
67093;SHT31;54011;50.772;7.730;2023-04-09T12:20:47;20.81;37.88
67093;SHT31;54011;50.772;7.730;2023-04-09T12:23:14;20.70;37.76
67093;SHT31;54011;50.772;7.730;2023-04-09T12:25:42;20.32;37.73
67093;SHT31;54011;50.772;7.730;2023-04-09T12:28:11;20.20;38.31
67093;SHT31;54011;50.772;7.730;2023-04-09T12:30:39;19.89;38.24
67093;SHT31;54011;50.772;7.730;2023-04-09T12:33:07;19.64;38.30
67093;SHT31;54011;50.772;7.730;2023-04-09T12:35:32;19.64;37.99
67093;SHT31;54011;50.772;7.730;2023-04-09T12:37:59;19.83;38.15
67093;SHT31;54011;50.772;7.730;2023-04-09T12:40:26;20.05;38.46
67093;SHT31;54011;50.772;7.730;2023-04-09T12:42:51;19.99;39.38
67093;SHT31;54011;50.772;7.730;2023-04-09T12:45:18;19.85;38.15
67093;SHT31;54011;50.772;7.730;2023-04-09T12:47:44;20.20;36.97
67093;SHT31;54011;50.772;7.730;2023-04-09T12:50:11;20.68;36.61
67093;SHT31;54011;50.772;7.730;2023-04-09T12:52:36;21.12;37.43
67093;SHT31;54011;50.772;7.730;2023-04-09T12:55:03;20.23;37.71
67093;SHT31;54011;50.772;7.730;2023-04-09T12:57:29;19.44;37.55
67093;SHT31;54011;50.772;7.730;2023-04-09T12:59:55;19.32;38.74
67093;SHT31;54011;50.772;7.730;2023-04-09T13:02:20;18.94;40.47
67093;SHT31;54011;50.772;7.730;2023-04-09T13:04:46;19.23;39.63
67093;SHT31;54011;50.772;7.730;2023-04-09T13:07:13;19.34;39.38
67093;SHT31;54011;50.772;7.730;2023-04-09T13:09:46;19.24;39.65
67093;SHT31;54011;50.772;7.730;2023-04-09T13:12:15;19.02;39.49
67093;SHT31;54011;50.772;7.730;2023-04-09T13:14:45;19.78;38.83
67093;SHT31;54011;50.772;7.730;2023-04-09T13:17:10;20.60;38.02
67093;SHT31;54011;50.772;7.730;2023-04-09T13:19:36;19.97;36.87
67093;SHT31;54011;50.772;7.730;2023-04-09T13:22:01;19.64;37.64
67093;SHT31;54011;50.772;7.730;2023-04-09T13:24:27;19.03;37.49
67093;SHT31;54011;50.772;7.730;2023-04-09T13:26:52;19.23;37.91
67093;SHT31;54011;50.772;7.730;2023-04-09T13:29:18;18.84;38.32
67093;SHT31;54011;50.772;7.730;2023-04-09T13:31:45;19.24;39.01
67093;SHT31;54011;50.772;7.730;2023-04-09T13:34:11;19.36;38.17
67093;SHT31;54011;50.772;7.730;2023-04-09T13:36:36;18.89;38.88
67093;SHT31;54011;50.772;7.730;2023-04-09T13:39:02;19.30;39.96
67093;SHT31;54011;50.772;7.730;2023-04-09T13:41:32;19.34;38.94
67093;SHT31;54011;50.772;7.730;2023-04-09T13:43:58;19.41;38.96
67093;SHT31;54011;50.772;7.730;2023-04-09T13:46:23;19.23;39.99
67093;SHT31;54011;50.772;7.730;2023-04-09T13:48:49;19.24;39.48
67093;SHT31;54011;50.772;7.730;2023-04-09T13:51:14;19.45;39.50
67093;SHT31;54011;50.772;7.730;2023-04-09T13:53:40;20.02;37.35
67093;SHT31;54011;50.772;7.730;2023-04-09T13:56:06;20.14;37.81
67093;SHT31;54011;50.772;7.730;2023-04-09T13:58:31;19.96;38.15
67093;SHT31;54011;50.772;7.730;2023-04-09T14:00:56;20.20;37.59
67093;SHT31;54011;50.772;7.730;2023-04-09T14:03:22;20.36;38.40
67093;SHT31;54011;50.772;7.730;2023-04-09T14:05:47;20.27;37.88
67093;SHT31;54011;50.772;7.730;2023-04-09T14:08:14;19.93;37.98
67093;SHT31;54011;50.772;7.730;2023-04-09T14:10:40;20.20;38.43
67093;SHT31;54011;50.772;7.730;2023-04-09T14:13:05;20.30;37.54
67093;SHT31;54011;50.772;7.730;2023-04-09T14:15:34;19.96;38.10
67093;SHT31;54011;50.772;7.730;2023-04-09T14:18:00;19.87;38.40
67093;SHT31;54011;50.772;7.730;2023-04-09T14:20:25;20.70;37.70
67093;SHT31;54011;50.772;7.730;2023-04-09T14:22:50;21.69;35.48
67093;SHT31;54011;50.772;7.730;2023-04-09T14:25:16;22.59;34.01
67093;SHT31;54011;50.772;7.730;2023-04-09T14:27:41;20.88;34.96
67093;SHT31;54011;50.772;7.730;2023-04-09T14:30:11;20.96;37.48
67093;SHT31;54011;50.772;7.730;2023-04-09T14:32:37;20.39;36.92
67093;SHT31;54011;50.772;7.730;2023-04-09T14:35:03;20.17;37.12
67093;SHT31;54011;50.772;7.730;2023-04-09T14:37:29;20.44;36.56
67093;SHT31;54011;50.772;7.730;2023-04-09T14:39:54;20.17;37.16
67093;SHT31;54011;50.772;7.730;2023-04-09T14:42:20;19.87;37.86
67093;SHT31;54011;50.772;7.730;2023-04-09T14:44:45;20.06;36.35
67093;SHT31;54011;50.772;7.730;2023-04-09T14:47:11;19.14;36.36
67093;SHT31;54011;50.772;7.730;2023-04-09T14:49:36;20.32;36.14
67093;SHT31;54011;50.772;7.730;2023-04-09T14:52:02;20.81;35.65
67093;SHT31;54011;50.772;7.730;2023-04-09T14:54:27;21.18;35.89
67093;SHT31;54011;50.772;7.730;2023-04-09T14:56:55;20.98;36.68
67093;SHT31;54011;50.772;7.730;2023-04-09T14:59:24;20.96;36.88
67093;SHT31;54011;50.772;7.730;2023-04-09T15:01:50;20.33;38.37
67093;SHT31;54011;50.772;7.730;2023-04-09T15:04:17;20.84;37.31
67093;SHT31;54011;50.772;7.730;2023-04-09T15:06:42;20.74;37.59
67093;SHT31;54011;50.772;7.730;2023-04-09T15:09:09;21.54;34.42
67093;SHT31;54011;50.772;7.730;2023-04-09T15:11:36;21.52;34.56
67093;SHT31;54011;50.772;7.730;2023-04-09T15:14:02;21.12;34.63
67093;SHT31;54011;50.772;7.730;2023-04-09T15:16:28;23.39;32.34
67093;SHT31;54011;50.772;7.730;2023-04-09T15:18:56;24.76;30.71
67093;SHT31;54011;50.772;7.730;2023-04-09T15:21:23;22.13;31.88
67093;SHT31;54011;50.772;7.730;2023-04-09T15:23:50;20.45;35.72
67093;SHT31;54011;50.772;7.730;2023-04-09T15:26:16;21.06;35.28
67093;SHT31;54011;50.772;7.730;2023-04-09T15:28:41;23.17;32.74
67093;SHT31;54011;50.772;7.730;2023-04-09T15:31:07;22.47;33.72
67093;SHT31;54011;50.772;7.730;2023-04-09T15:33:34;22.99;32.94
67093;SHT31;54011;50.772;7.730;2023-04-09T15:36:02;24.44;31.67
67093;SHT31;54011;50.772;7.730;2023-04-09T15:38:28;25.30;30.09
67093;SHT31;54011;50.772;7.730;2023-04-09T15:40:55;25.12;30.30
67093;SHT31;54011;50.772;7.730;2023-04-09T15:43:21;25.10;28.91
67093;SHT31;54011;50.772;7.730;2023-04-09T15:45:49;25.41;29.44
67093;SHT31;54011;50.772;7.730;2023-04-09T15:48:15;24.92;31.02
67093;SHT31;54011;50.772;7.730;2023-04-09T15:50:41;22.65;31.69
67093;SHT31;54011;50.772;7.730;2023-04-09T15:53:06;21.29;34.85
67093;SHT31;54011;50.772;7.730;2023-04-09T15:55:32;20.77;35.78
67093;SHT31;54011;50.772;7.730;2023-04-09T15:57:59;21.33;35.29